Time;durP1;ratioP1;P1;durP2;ratioP2;P2;SDS_P1;SDS_P2;PMS_P1;PMS_P2;Temp;Humidity;BMP_temperature;BMP_pressure;BME280_temperature;BME280_humidity;BME280_pressure;Samples;Min_cycle;Max_cycle;Signal;HPM_P1;HPM_P2
2023/06/14 00:02:02;;;;;;;;;11.00;11.00;;;;;11.78;100.00;99352.06;6312977;20;2788893;-52
2023/06/14 00:04:30;;;;;;;;;12.00;11.00;;;;;11.69;100.00;99363.50;6276371;20;2793055;-52
2023/06/14 00:06:59;;;;;;;;;11.67;11.67;;;;;11.97;100.00;99370.44;6277081;20;3517963;-50
2023/06/14 00:09:28;;;;;;;;;15.00;13.00;;;;;12.03;100.00;99366.47;6337275;20;2802577;-48
2023/06/14 00:11:56;;;;;;;;;13.00;11.67;;;;;11.93;100.00;99368.97;6281804;20;2796160;-54
2023/06/14 00:14:25;;;;;;;;;13.60;11.20;;;;;11.81;100.00;99356.38;6336712;20;2787123;-49
2023/06/14 00:16:58;;;;;;;;;16.33;11.00;;;;;11.89;100.00;99367.47;6282188;20;3529543;-50
2023/06/14 00:19:26;;;;;;;;;17.00;15.00;;;;;11.77;100.00;99362.91;6318830;20;2822121;-51
2023/06/14 00:21:55;;;;;;;;;16.00;16.00;;;;;11.82;100.00;99358.06;6285928;20;3559652;-51
2023/06/14 00:24:23;;;;;;;;;17.33;14.00;;;;;11.99;100.00;99363.13;6312424;20;3522124;-52
2023/06/14 00:26:51;;;;;;;;;11.00;10.00;;;;;11.98;100.00;99366.81;6322805;20;2794093;-51
2023/06/14 00:29:20;;;;;;;;;14.40;14.40;;;;;11.86;100.00;99367.69;6312743;20;2807619;-49
2023/06/14 00:31:48;;;;;;;;;16.67;10.00;;;;;11.75;100.00;99363.06;6286186;20;3530455;-51
2023/06/14 00:34:16;;;;;;;;;12.33;11.00;;;;;12.12;100.00;99368.50;6316876;20;3519104;-52
2023/06/14 00:36:45;;;;;;;;;14.00;12.33;;;;;11.90;100.00;99371.91;6318501;20;3513828;-51
2023/06/14 00:39:12;;;;;;;;;14.00;12.00;;;;;11.92;100.00;99363.69;6320439;20;2798181;-52
2023/06/14 00:41:39;;;;;;;;;12.00;12.00;;;;;11.70;100.00;99358.97;6290935;20;2802490;-50
2023/06/14 00:44:07;;;;;;;;;12.00;12.00;;;;;11.69;100.00;99359.94;6287090;20;2796148;-48
2023/06/14 00:46:34;;;;;;;;;17.00;12.00;;;;;11.57;100.00;99359.84;6290269;20;2798331;-52
2023/06/14 00:49:02;;;;;;;;;16.00;12.50;;;;;11.50;100.00;99355.84;6289241;20;2809769;-50
2023/06/14 00:51:30;;;;;;;;;15.00;15.00;;;;;11.59;100.00;99362.44;6286456;20;2786784;-50
2023/06/14 00:53:58;;;;;;;;;16.00;13.67;;;;;11.30;100.00;99361.81;6284804;20;3542905;-47
2023/06/14 00:56:27;;;;;;;;;10.00;10.00;;;;;11.66;100.00;99363.69;6317131;20;2792075;-51
2023/06/14 00:58:56;;;;;;;;;18.00;15.00;;;;;11.23;100.00;99360.50;6318975;20;2791965;-52
2023/06/14 01:01:24;;;;;;;;;12.00;12.00;;;;;11.02;100.00;99366.38;6287785;20;3518032;-50
2023/06/14 01:03:53;;;;;;;;;12.80;10.20;;;;;11.07;100.00;99361.56;6341471;20;2791917;-53
2023/06/14 01:06:45;;;;;;;;;18.33;15.00;;;;;10.84;100.00;99354.19;6282181;20;3541010;-55
2023/06/14 01:09:17;;;;;;;;;16.50;13.00;;;;;11.11;100.00;99360.38;6317114;20;2796165;-52
2023/06/14 01:12:30;;;;;;;;;21.00;16.00;;;;;11.07;100.00;99366.06;6284937;20;2822169;-53
2023/06/14 01:15:00;;;;;;;;;18.00;11.33;;;;;11.12;100.00;99354.03;6282924;20;2801323;-54
2023/06/14 01:17:31;;;;;;;;;13.00;12.50;;;;;10.82;100.00;99353.44;6318793;20;2789970;-53
2023/06/14 01:20:03;;;;;;;;;13.33;11.33;;;;;10.61;100.00;99356.63;6286045;20;2794056;-51
2023/06/14 01:22:31;;;;;;;;;10.00;8.00;;;;;10.62;100.00;99355.66;6314866;20;2764930;-52
2023/06/14 01:25:00;;;;;;;;;16.33;12.67;;;;;10.66;100.00;99354.47;6277829;20;3538813;-52
2023/06/14 01:27:28;;;;;;;;;13.00;10.00;;;;;10.54;100.00;99355.31;6288620;20;2786899;-52
2023/06/14 01:29:59;;;;;;;;;11.20;9.40;;;;;10.50;100.00;99351.09;6302263;20;2765992;-50
2023/06/14 01:32:29;;;;;;;;;16.00;10.33;;;;;10.26;100.00;99354.41;6286818;20;3519149;-54
2023/06/14 01:34:57;;;;;;;;;17.00;12.00;;;;;10.19;100.00;99349.53;6316426;20;2800367;-51
2023/06/14 01:37:24;;;;;;;;;15.00;12.00;;;;;10.58;100.00;99353.28;6290259;20;2788958;-54
2023/06/14 01:39:52;;;;;;;;;18.50;17.50;;;;;10.63;100.00;99359.19;6282375;20;2814889;-52
2023/06/14 01:42:21;;;;;;;;;15.50;11.00;;;;;10.52;100.00;99360.78;6280233;20;2796245;-51
2023/06/14 01:44:52;;;;;;;;;16.67;12.00;;;;;10.30;100.00;99358.66;6280645;20;3536717;-51
2023/06/14 01:47:19;;;;;;;;;11.50;10.00;;;;;10.52;100.00;99358.09;6318416;20;2788826;-51
2023/06/14 01:49:48;;;;;;;;;14.00;11.00;;;;;10.41;100.00;99359.78;6285103;20;2796136;-55
2023/06/14 01:52:15;;;;;;;;;16.50;12.00;;;;;10.74;100.00;99357.53;6319658;20;2795184;-55
2023/06/14 01:54:43;;;;;;;;;16.00;13.67;;;;;10.54;100.00;99358.84;6282681;20;2798337;-54
2023/06/14 01:57:12;;;;;;;;;14.20;11.40;;;;;10.45;100.00;99356.81;6342255;20;2788850;-55
2023/06/14 01:59:40;;;;;;;;;11.00;11.00;;;;;10.26;100.00;99358.91;6285197;20;2785844;-53
2023/06/14 02:02:08;;;;;;;;;14.00;12.00;;;;;10.17;100.00;99357.72;6317962;20;2793113;-50
2023/06/14 02:04:35;;;;;;;;;16.00;14.00;;;;;10.17;100.00;99365.75;6284673;20;2796249;-54
2023/06/14 02:07:02;;;;;;;;;18.00;17.00;;;;;9.91;100.00;99374.63;6298864;20;2819120;-52
2023/06/14 02:09:30;;;;;;;;;21.50;14.00;;;;;10.11;100.00;99371.53;6282760;20;2492007;-55
2023/06/14 02:11:58;;;;;;;;;17.00;16.33;;;;;10.14;100.00;99373.13;6281120;20;3568935;-53
2023/06/14 02:14:26;;;;;;;;;18.67;14.67;;;;;10.15;100.00;99375.72;6280538;20;3556632;-53
2023/06/14 02:16:54;;;;;;;;;14.00;13.00;;;;;10.23;100.00;99369.84;6317145;20;2789865;-52
2023/06/14 02:19:21;;;;;;;;;12.00;11.00;;;;;10.44;100.00;99371.16;6285541;20;2790044;-54
2023/06/14 02:21:49;;;;;;;;;14.00;14.00;;;;;10.22;100.00;99369.00;6282074;20;3521777;-54
2023/06/14 02:24:18;;;;;;;;;12.33;12.33;;;;;10.23;100.00;99378.75;6305913;20;2788808;-53
2023/06/14 02:26:46;;;;;;;;;14.67;12.00;;;;;10.01;100.00;99365.03;6311985;20;3512770;-53
2023/06/14 02:29:14;;;;;;;;;14.00;12.50;;;;;9.92;100.00;99373.66;6310891;20;2798323;-54
2023/06/14 02:31:42;;;;;;;;;14.00;11.50;;;;;10.09;100.00;99374.31;6288222;20;2795082;-51
2023/06/14 02:34:09;;;;;;;;;16.00;16.00;;;;;10.06;100.00;99368.28;6285495;20;2838946;-54
2023/06/14 02:36:41;;;;;;;;;13.50;13.00;;;;;10.08;100.00;99367.22;6277693;20;2794002;-51
2023/06/14 02:39:10;;;;;;;;;14.33;12.33;;;;;10.01;100.00;99362.34;6282292;20;2796225;-51
2023/06/14 02:41:41;;;;;;;;;13.00;10.50;;;;;9.91;100.00;99363.91;6315133;20;2786890;-54
2023/06/14 02:44:11;;;;;;;;;14.50;14.00;;;;;9.91;100.00;99370.13;6284760;20;2807702;-51
2023/06/14 02:46:39;;;;;;;;;15.50;12.00;;;;;9.92;100.00;99366.47;6289880;20;2802446;-52
2023/06/14 02:49:07;;;;;;;;;19.67;17.00;;;;;10.08;100.00;99355.59;6283782;20;3558688;-50
2023/06/14 02:51:35;;;;;;;;;14.00;13.00;;;;;10.21;100.00;99353.84;6289141;20;2786960;-52
2023/06/14 02:54:03;;;;;;;;;14.00;14.00;;;;;10.22;100.00;99358.28;6284979;20;2795079;-55
2023/06/14 02:56:31;;;;;;;;;17.00;16.33;;;;;10.06;100.00;99354.88;6285495;20;3553412;-51
2023/06/14 02:59:00;;;;;;;;;15.67;13.67;;;;;10.11;100.00;99358.97;6314100;20;3526321;-55
2023/06/14 03:01:34;;;;;;;;;16.67;13.33;;;;;9.96;100.00;99356.44;6314438;20;3516969;-53
2023/06/14 03:04:03;;;;;;;;;16.33;15.67;;;;;9.97;100.00;99352.78;6312860;20;3539037;-56
2023/06/14 03:06:31;;;;;;;;;20.33;16.00;;;;;9.87;100.00;99353.38;6310894;20;3555502;-53
2023/06/14 03:09:01;;;;;;;;;22.00;18.00;;;;;9.85;100.00;99360.66;6288194;20;2828511;-49
2023/06/14 03:11:29;;;;;;;;;15.67;15.67;;;;;10.08;100.00;99351.13;6283873;20;3540975;-56
2023/06/14 03:13:56;;;;;;;;;19.00;17.00;;;;;10.17;100.00;99354.16;6309746;20;2496050;-52
2023/06/14 03:16:25;;;;;;;;;16.67;14.33;;;;;10.22;100.00;99358.28;6283898;20;3532627;-55
2023/06/14 03:18:52;;;;;;;;;16.00;16.00;;;;;10.35;100.00;99354.78;6312590;20;2500436;-56
2023/06/14 03:21:21;;;;;;;;;19.33;16.33;;;;;10.46;100.00;99355.81;6282199;20;3540014;-56
2023/06/14 03:23:48;;;;;;;;;16.00;15.50;;;;;10.33;100.00;99358.44;6284184;20;2813817;-55
2023/06/14 03:26:17;;;;;;;;;16.67;16.67;;;;;10.32;100.00;99358.53;6278814;20;3563825;-52
2023/06/14 03:28:46;;;;;;;;;16.00;15.00;;;;;10.61;100.00;99359.31;6282072;20;2813823;-55
2023/06/14 03:31:13;;;;;;;;;23.00;16.00;;;;;10.48;100.00;99353.06;6285301;20;2836734;-53
2023/06/14 03:33:41;;;;;;;;;22.00;17.00;;;;;10.54;100.00;99352.63;6280027;20;2830618;-52
2023/06/14 03:36:09;;;;;;;;;14.33;14.00;;;;;10.44;100.00;99362.25;6279971;20;3520053;-53
2023/06/14 03:38:37;;;;;;;;;13.00;13.00;;;;;10.67;100.00;99360.72;6311870;20;3465076;-54
2023/06/14 03:41:04;;;;;;;;;17.50;14.50;;;;;10.74;100.00;99362.00;6315294;20;2819163;-52
2023/06/14 03:43:34;;;;;;;;;18.00;18.00;;;;;10.75;100.00;99361.94;6280930;20;2833625;-52
2023/06/14 03:46:02;;;;;;;;;24.67;18.67;;;;;10.58;100.00;99369.38;6288644;20;3581545;-52
2023/06/14 03:48:31;;;;;;;;;90.33;57.00;;;;;10.80;100.00;99366.13;6280209;20;3662866;-55
2023/06/14 03:51:00;;;;;;;;;20.50;20.50;;;;;10.74;100.00;99365.59;6281463;20;2839861;-53
2023/06/14 03:53:29;;;;;;;;;22.00;17.33;;;;;11.16;100.00;99370.78;6285741;20;3577328;-52
2023/06/14 03:55:57;;;;;;;;;22.33;20.00;;;;;11.25;100.00;99374.69;6288793;20;2831602;-50
2023/06/14 03:58:26;;;;;;;;;18.00;15.50;;;;;11.30;100.00;99377.91;6315984;20;2829438;-51
2023/06/14 04:00:53;;;;;;;;;20.50;17.00;;;;;11.48;100.00;99387.38;6290283;20;2832958;-53
2023/06/14 04:03:23;;;;;;;;;19.67;14.33;;;;;11.40;100.00;99392.41;6287220;20;3562818;-51
2023/06/14 04:05:52;;;;;;;;;21.50;15.50;;;;;11.69;100.00;99394.88;6287304;20;2492004;-52
2023/06/14 04:08:22;;;;;;;;;19.67;16.67;;;;;11.83;100.00;99390.25;6288431;20;2827377;-51
2023/06/14 04:10:50;;;;;;;;;18.00;16.00;;;;;11.78;100.00;99391.56;6317839;20;2822171;-50
2023/06/14 04:13:18;;;;;;;;;19.50;16.00;;;;;11.77;100.00;99392.50;6283113;20;2821664;-55
2023/06/14 04:15:47;;;;;;;;;20.00;18.67;;;;;12.08;100.00;99389.41;6281776;20;3562936;-54
2023/06/14 04:18:14;;;;;;;;;20.00;16.00;;;;;12.21;100.00;99392.03;6284809;20;2500366;-52
2023/06/14 04:20:41;;;;;;;;;19.50;17.00;;;;;12.29;100.00;99389.63;6286115;20;2494056;-52
2023/06/14 04:23:21;;;;;;;;;25.50;18.50;;;;;14.24;98.39;99401.56;6287249;20;2848267;-54
2023/06/14 04:25:50;;;;;;;;;21.00;19.00;;;;;14.18;91.53;99395.81;6282844;20;2839972;-51
2023/06/14 04:28:18;;;;;;;;;25.00;22.00;;;;;12.91;98.66;99398.53;6285123;20;2494022;-51
2023/06/14 04:30:47;;;;;;;;;23.00;18.00;;;;;12.87;100.00;99394.34;6287475;20;2839852;-51
2023/06/14 04:33:15;;;;;;;;;19.00;18.00;;;;;12.78;100.00;99400.44;6287661;20;2837915;-56
2023/06/14 04:35:47;;;;;;;;;19.00;16.00;;;;;12.76;100.00;99397.84;6282650;20;2824283;-54
2023/06/14 04:38:15;;;;;;;;;18.00;13.00;;;;;13.28;100.00;99398.44;6283648;20;2500296;-53
2023/06/14 04:40:45;;;;;;;;;20.50;18.50;;;;;13.30;100.00;99394.66;6287766;20;2831590;-52
2023/06/14 04:43:17;;;;;;;;;29.00;17.00;;;;;13.57;100.00;99399.72;6282417;20;2483761;-52
2023/06/14 04:45:46;;;;;;;;;18.00;16.00;;;;;14.12;97.38;99405.25;6282902;20;2825286;-51
2023/06/14 04:48:15;;;;;;;;;23.00;19.00;;;;;13.56;100.00;99397.13;6284898;20;2844051;-52
2023/06/14 04:50:43;;;;;;;;;26.50;20.00;;;;;13.90;99.25;99406.13;6286480;20;2844084;-54
2023/06/14 04:53:11;;;;;;;;;30.00;23.00;;;;;13.90;98.43;99402.56;6286554;20;2839900;-51
2023/06/14 04:55:44;;;;;;;;;26.50;23.00;;;;;13.90;99.90;99403.44;6283968;20;2826330;-53
2023/06/14 04:58:12;;;;;;;;;21.00;18.00;;;;;13.85;100.00;99408.34;6285953;20;2830751;-51
2023/06/14 05:00:43;;;;;;;;;22.00;20.00;;;;;14.27;99.71;99409.44;6284514;20;2846115;-52
2023/06/14 05:03:12;;;;;;;;;21.00;19.50;;;;;14.52;98.41;99412.81;6287601;20;2835686;-50
2023/06/14 05:05:41;;;;;;;;;19.00;18.00;;;;;14.57;97.34;99413.31;6285779;20;2837806;-49
2023/06/14 05:08:09;;;;;;;;;23.00;20.50;;;;;14.56;98.57;99416.13;6284036;20;2846133;-49
2023/06/14 05:10:38;;;;;;;;;19.50;15.50;;;;;14.45;99.80;99417.00;6287385;20;2808122;-51
2023/06/14 05:13:06;;;;;;;;;19.00;16.00;;;;;14.53;100.00;99425.34;6285334;20;2827517;-54
2023/06/14 05:15:34;;;;;;;;;21.50;15.50;;;;;14.75;99.30;99427.16;6280408;20;2826479;-52
2023/06/14 05:18:02;;;;;;;;;21.00;18.50;;;;;15.12;97.68;99426.78;6280670;20;2492006;-51
2023/06/14 05:20:30;;;;;;;;;17.50;16.00;;;;;14.93;97.72;99432.88;6280957;20;2500271;-53
2023/06/14 05:22:58;;;;;;;;;19.50;19.50;;;;;15.19;97.53;99435.22;6284466;20;2837748;-53
2023/06/14 05:25:28;;;;;;;;;18.50;16.50;;;;;15.41;95.70;99437.81;6280668;20;2831631;-51
2023/06/14 05:27:56;;;;;;;;;18.00;16.67;;;;;15.45;94.56;99435.69;6283025;20;3550265;-50
2023/06/14 05:30:24;;;;;;;;;20.50;18.00;;;;;15.57;94.68;99438.22;6281905;20;2829485;-53
2023/06/14 05:32:52;;;;;;;;;20.00;15.50;;;;;15.85;93.52;99438.56;6282012;20;2492047;-55
2023/06/14 05:35:22;;;;;;;;;20.00;16.33;;;;;16.06;92.25;99437.63;6279891;20;3563032;-53
2023/06/14 05:37:49;;;;;;;;;17.00;14.00;;;;;15.84;92.51;99428.69;6282680;20;2496226;-51
2023/06/14 05:40:17;;;;;;;;;16.00;14.50;;;;;16.07;92.07;99428.53;6284688;20;2810807;-54
2023/06/14 05:42:45;;;;;;;;;14.50;14.50;;;;;16.29;92.49;99428.31;6287077;20;2801426;-52
2023/06/14 05:45:15;;;;;;;;;20.50;17.00;;;;;16.34;90.54;99436.06;6280947;20;2833658;-57
2023/06/14 05:47:44;;;;;;;;;22.50;16.50;;;;;16.68;89.48;99431.16;6278652;20;2843056;-55
2023/06/14 05:50:12;;;;;;;;;16.33;13.33;;;;;17.05;87.01;99439.50;6286010;20;2809763;-56
2023/06/14 05:52:40;;;;;;;;;13.33;12.00;;;;;17.10;86.31;99433.66;6313810;20;3514981;-52
2023/06/14 05:55:11;;;;;;;;;13.67;11.00;;;;;17.24;85.20;99441.34;6310977;20;3520521;-54
2023/06/14 05:57:41;;;;;;;;;16.00;14.67;;;;;17.27;83.25;99438.38;6311895;20;3550399;-56
2023/06/14 06:00:16;;;;;;;;;18.33;16.33;;;;;17.54;83.29;99436.78;6283871;20;2826706;-54
2023/06/14 06:02:44;;;;;;;;;14.00;14.00;;;;;17.80;82.74;99434.34;6296623;20;2496309;-55
2023/06/14 06:05:13;;;;;;;;;20.00;16.50;;;;;17.30;82.49;99459.78;6278510;20;2483673;-51
2023/06/14 06:07:44;;;;;;;;;14.50;14.50;;;;;16.99;83.53;99450.06;6278248;20;2492059;-47
2023/06/14 06:10:12;;;;;;;;;13.67;11.67;;;;;17.16;84.28;99445.78;6278426;20;3510817;-55
2023/06/14 06:12:42;;;;;;;;;10.00;8.00;;;;;17.36;83.13;99454.81;6306607;20;2745115;-56
2023/06/14 06:15:11;;;;;;;;;10.00;10.00;;;;;17.38;84.16;99447.34;6303729;20;3499292;-54
2023/06/14 06:17:40;;;;;;;;;11.00;11.00;;;;;17.82;82.10;99447.75;6309621;20;3509635;-51
2023/06/14 06:20:31;;;;;;;;;17.00;14.00;;;;;17.86;79.69;99446.47;6311875;20;3555533;-53
2023/06/14 06:23:00;;;;;;;;;12.67;11.00;;;;;17.95;80.10;99459.16;6281186;20;3513825;-54
2023/06/14 06:25:27;;;;;;;;;22.00;14.00;;;;;18.49;79.73;99452.09;6305927;20;2475574;-55
2023/06/14 06:27:58;;;;;;;;;15.67;11.67;;;;;18.74;78.43;99453.22;6280207;20;2802563;-50
2023/06/14 06:30:26;;;;;;;;;16.00;11.33;;;;;18.86;78.32;99462.91;6313463;20;3524680;-52
2023/06/14 06:32:55;;;;;;;;;14.00;11.00;;;;;19.41;76.74;99455.63;6313475;20;2790050;-55
2023/06/14 06:35:24;;;;;;;;;10.67;10.67;;;;;19.52;76.67;99463.56;6310767;20;3513986;-51
2023/06/14 06:37:52;;;;;;;;;11.00;10.00;;;;;18.74;76.20;99452.38;6320226;20;2784669;-52
2023/06/14 06:40:20;;;;;;;;;13.00;11.00;;;;;19.14;76.57;99453.84;6287796;20;2786826;-49
2023/06/14 06:42:48;;;;;;;;;11.00;11.00;;;;;19.66;74.54;99456.69;6286513;20;2794023;-51
2023/06/14 06:45:16;;;;;;;;;11.00;10.00;;;;;19.89;73.85;99460.63;6310599;20;3511749;-51
2023/06/14 06:47:45;;;;;;;;;12.67;10.00;;;;;20.26;72.03;99458.66;6313538;20;2789790;-54
2023/06/14 06:50:13;;;;;;;;;12.67;11.00;;;;;19.88;72.98;99464.38;6313764;20;3520141;-51
2023/06/14 06:52:41;;;;;;;;;11.00;10.33;;;;;20.22;69.53;99458.13;6286965;20;2784663;-55
2023/06/14 06:55:11;;;;;;;;;13.00;11.00;;;;;20.07;71.64;99457.00;6310281;20;3517182;-52
2023/06/14 06:57:40;;;;;;;;;13.00;12.00;;;;;20.87;71.36;99464.88;6316134;20;2789017;-48
2023/06/14 07:00:09;;;;;;;;;11.00;11.00;;;;;21.32;68.42;99464.47;6314424;20;2789870;-48
2023/06/14 07:02:38;;;;;;;;;8.60;8.20;;;;;21.12;68.49;99463.09;6340464;20;2750362;-49
2023/06/14 07:05:08;;;;;;;;;10.40;8.00;;;;;21.23;68.31;99466.34;6304965;20;2750497;-48
2023/06/14 07:07:36;;;;;;;;;13.67;12.00;;;;;21.12;67.84;99474.84;6281842;20;2799270;-52
2023/06/14 07:10:05;;;;;;;;;12.33;10.33;;;;;21.25;67.16;99469.75;6312484;20;3516035;-52
2023/06/14 07:12:35;;;;;;;;;7.67;6.67;;;;;22.11;66.80;99465.66;6314710;20;2747157;-58
2023/06/14 07:15:04;;;;;;;;;17.67;11.00;;;;;22.54;62.69;99469.00;6309525;20;3547302;-59
2023/06/14 07:17:33;;;;;;;;;12.33;10.67;;;;;21.76;65.58;99471.53;6282571;20;3511740;-58
2023/06/14 07:20:07;;;;;;;;;10.67;9.33;;;;;21.73;64.47;99475.44;6310451;20;2787889;-59
2023/06/14 07:22:36;;;;;;;;;12.00;11.00;;;;;21.91;61.76;99472.53;6312646;20;3516444;-59
2023/06/14 07:25:05;;;;;;;;;11.60;9.60;;;;;22.84;61.69;99471.94;6302852;20;2763887;-59
2023/06/14 07:27:34;;;;;;;;;12.00;12.00;;;;;22.20;62.68;99463.78;6285840;20;3525488;-53
2023/06/14 07:30:02;;;;;;;;;9.67;8.00;;;;;22.25;61.01;99465.97;6314838;20;2763828;-49
2023/06/14 07:32:31;;;;;;;;;12.67;10.67;;;;;22.38;63.22;99470.91;6318398;20;3515955;-47
2023/06/14 07:34:59;;;;;;;;;10.33;9.67;;;;;21.63;64.28;99467.41;6316619;20;3494113;-47
2023/06/14 07:37:27;;;;;;;;;13.67;12.33;;;;;22.26;62.08;99467.72;6316224;20;2483618;-51
2023/06/14 07:39:55;;;;;;;;;13.67;11.33;;;;;22.26;63.54;99464.97;6311496;20;3513945;-55
2023/06/14 07:42:23;;;;;;;;;14.00;11.67;;;;;22.35;62.23;99463.91;6315292;20;2796632;-53
2023/06/14 07:44:52;;;;;;;;;10.00;9.67;;;;;22.31;60.38;99468.03;6323536;20;2769033;-51
2023/06/14 07:47:20;;;;;;;;;9.67;9.67;;;;;21.92;64.14;99466.03;6318470;20;2776410;-52
2023/06/14 07:49:49;;;;;;;;;9.00;9.00;;;;;22.19;62.29;99472.16;6323502;20;2749226;-48
2023/06/14 07:52:17;;;;;;;;;9.67;7.33;;;;;22.98;61.15;99473.06;6318882;20;2736747;-49
2023/06/14 07:54:45;;;;;;;;;12.00;10.67;;;;;22.42;61.21;99473.13;6321856;20;2789916;-53
2023/06/14 07:57:13;;;;;;;;;10.67;9.00;;;;;22.23;61.61;99473.53;6315818;20;2775390;-50
2023/06/14 07:59:42;;;;;;;;;8.00;8.00;;;;;21.85;62.16;99478.66;6344903;20;2752373;-51
2023/06/14 08:02:11;;;;;;;;;8.40;8.40;;;;;22.38;62.02;99470.91;6313576;20;2747205;-53
2023/06/14 08:04:41;;;;;;;;;7.60;7.00;;;;;22.91;57.85;99472.94;6313232;20;2750321;-48
2023/06/14 08:07:10;;;;;;;;;9.00;8.00;;;;;23.15;57.64;99473.84;6292047;20;2757584;-58
2023/06/14 08:09:38;;;;;;;;;10.67;9.33;;;;;23.81;54.73;99475.06;6318782;20;2765915;-50
2023/06/14 08:12:09;;;;;;;;;11.33;10.00;;;;;24.57;50.92;99486.00;6320942;20;2790945;-58
2023/06/14 08:14:40;;;;;;;;;11.40;8.80;;;;;23.75;52.84;99478.56;6342098;20;2773383;-50
2023/06/14 08:17:08;;;;;;;;;6.67;6.67;;;;;24.38;49.78;99481.00;6292887;20;2736807;-47
2023/06/14 08:19:36;;;;;;;;;21.33;18.33;;;;;23.98;52.70;99478.50;6320672;20;3571130;-48
2023/06/14 08:22:05;;;;;;;;;10.00;9.00;;;;;24.11;52.06;99483.34;6292190;20;2773430;-50
2023/06/14 08:24:33;;;;;;;;;11.00;8.00;;;;;23.59;53.10;99479.53;6319625;20;2767017;-49
2023/06/14 08:27:01;;;;;;;;;11.33;9.67;;;;;22.47;55.03;99476.19;6313483;20;3511747;-52
2023/06/14 08:29:31;;;;;;;;;12.00;11.00;;;;;22.62;57.40;99478.16;6338180;20;2793004;-52
2023/06/14 08:31:59;;;;;;;;;9.67;9.67;;;;;22.64;57.33;99479.69;6315793;20;2779461;-54
2023/06/14 08:34:28;;;;;;;;;10.67;10.33;;;;;22.93;57.78;99476.34;6315565;20;3519024;-50
2023/06/14 08:36:56;;;;;;;;;11.00;11.00;;;;;22.70;55.73;99487.22;6283727;20;3515011;-50
2023/06/14 08:39:24;;;;;;;;;9.00;9.00;;;;;22.07;58.69;99477.97;6279654;20;2750426;-49
2023/06/14 08:41:54;;;;;;;;;9.67;9.67;;;;;23.66;58.80;99493.34;6312964;20;2779570;-51
2023/06/14 08:44:23;;;;;;;;;10.67;9.00;;;;;24.77;52.74;99502.72;6312307;20;2769027;-51
2023/06/14 08:46:53;;;;;;;;;11.00;11.00;;;;;24.72;51.95;99495.06;6314963;20;3510729;-49
2023/06/14 08:49:21;;;;;;;;;11.00;10.67;;;;;24.60;51.68;99502.06;6309233;20;2789905;-49
2023/06/14 08:51:58;;;;;;;;;10.67;10.67;;;;;24.60;53.47;99502.06;6312009;20;3513802;-49
2023/06/14 08:54:30;;;;;;;;;11.00;10.00;;;;;24.56;52.47;99508.97;6284270;20;3503441;-50
2023/06/14 08:56:59;;;;;;;;;12.00;10.33;;;;;24.75;50.96;99511.16;6308489;20;3509659;-53
2023/06/14 08:59:36;;;;;;;;;9.00;9.00;;;;;25.09;50.17;99509.69;6313774;20;3478371;-52
2023/06/14 09:02:06;;;;;;;;;10.00;10.00;;;;;25.17;51.64;99514.22;6322686;20;3494062;-47
2023/06/14 09:04:49;;;;;;;;;8.67;8.67;;;;;23.53;53.99;99498.56;6322014;20;2752397;-49
2023/06/14 09:07:18;;;;;;;;;12.00;12.00;;;;;24.20;53.19;99501.47;6321007;20;2483626;-47
2023/06/14 09:09:46;;;;;;;;;12.33;12.00;;;;;24.78;50.11;99504.44;6316696;20;3511807;-54
2023/06/14 09:12:32;;;;;;;;;10.00;10.00;;;;;25.34;50.28;99507.47;6307363;20;3520168;-49
2023/06/14 09:15:05;;;;;;;;;13.00;10.33;;;;;24.90;49.95;99507.53;6275773;20;3501329;-50
2023/06/14 09:17:34;;;;;;;;;12.00;11.00;;;;;25.55;49.63;99505.78;6318361;20;2782750;-50
2023/06/14 09:20:10;;;;;;;;;10.33;8.33;;;;;24.72;48.01;99505.19;6316838;20;2782606;-50
2023/06/14 09:22:39;;;;;;;;;12.00;9.67;;;;;25.50;48.90;99514.63;6311574;20;3507750;-52
2023/06/14 09:25:08;;;;;;;;;8.33;8.33;;;;;24.77;48.58;99501.88;6315267;20;2746166;-51
2023/06/14 09:27:41;;;;;;;;;10.00;10.00;;;;;24.59;50.82;99505.00;6316968;20;2550346;-51
2023/06/14 09:30:10;;;;;;;;;7.67;7.67;;;;;24.78;48.24;99506.31;6309942;20;2750376;-48
2023/06/14 09:32:40;;;;;;;;;8.00;8.00;;;;;24.06;48.72;99499.53;6312137;20;2748647;-48
2023/06/14 09:35:09;;;;;;;;;9.33;8.33;;;;;23.10;48.72;99500.94;6311523;20;2755496;-49
2023/06/14 09:37:38;;;;;;;;;6.00;6.00;;;;;23.47;48.98;99493.84;6314220;20;2737972;-47
2023/06/14 09:40:07;;;;;;;;;7.67;7.33;;;;;23.64;47.64;99495.41;6313936;20;2745176;-49
2023/06/14 09:42:36;;;;;;;;;7.67;7.67;;;;;23.71;43.62;99495.53;6311609;20;2739960;-52
2023/06/14 09:45:05;;;;;;;;;6.00;6.00;;;;;23.97;40.18;99493.28;6315903;20;2742025;-50
2023/06/14 09:47:34;;;;;;;;;7.00;6.60;;;;;24.64;40.75;99497.03;6342030;20;2737916;-49
2023/06/14 09:50:04;;;;;;;;;8.60;8.00;;;;;24.32;40.96;99499.09;6302960;20;2766034;-48
2023/06/14 09:52:33;;;;;;;;;6.00;4.60;;;;;23.60;40.16;99491.34;6311775;20;2745205;-50
2023/06/14 09:55:13;;;;;;;;;6.60;6.60;;;;;24.11;39.20;99502.56;6307808;20;2733683;-51
2023/06/14 09:57:45;;;;;;;;;6.00;5.00;;;;;24.13;42.11;99488.66;6338535;20;2743103;-51
2023/06/14 10:00:15;;;;;;;;;7.67;7.67;;;;;23.46;44.43;99482.03;6278884;20;2740895;-51
2023/06/14 10:02:51;;;;;;;;;7.00;7.00;;;;;23.42;43.86;99476.03;6316383;20;2739021;-49
2023/06/14 10:05:20;;;;;;;;;9.00;7.20;;;;;23.89;43.48;99485.13;6336758;20;2750395;-48
2023/06/14 10:07:56;;;;;;;;;6.33;6.33;;;;;23.53;42.20;99477.50;6284173;20;2729456;-48
2023/06/14 10:10:25;;;;;;;;;7.67;6.67;;;;;23.69;42.37;99482.00;6316482;20;2740924;-46
2023/06/14 10:12:54;;;;;;;;;9.80;8.00;;;;;24.26;41.25;99478.75;6339230;20;2769101;-47
2023/06/14 10:15:38;;;;;;;;;8.60;7.80;;;;;24.03;41.25;99477.97;6306372;20;2728610;-49
2023/06/14 10:18:53;;;;;;;;;6.67;5.00;;;;;23.94;42.82;99473.59;6314009;20;2743024;-48
2023/06/14 10:22:01;;;;;;;;;8.67;8.00;;;;;24.21;41.46;99480.34;6312230;20;2759645;-49
2023/06/14 10:24:34;;;;;;;;;5.00;5.00;;;;;24.44;42.44;99486.66;6312347;20;2740289;-48
2023/06/14 10:27:03;;;;;;;;;7.80;7.20;;;;;24.66;39.56;99484.84;6337541;20;2746223;-50
2023/06/14 10:29:33;;;;;;;;;7.40;6.20;;;;;24.74;38.93;99478.38;6306529;20;2739922;-48
2023/06/14 10:32:03;;;;;;;;;9.00;9.00;;;;;25.07;39.09;99487.06;6284835;20;2741046;-50
2023/06/14 10:34:32;;;;;;;;;8.33;8.00;;;;;25.27;39.39;99483.69;6314409;20;2753614;-47
2023/06/14 10:37:05;;;;;;;;;8.67;7.00;;;;;25.44;40.85;99482.41;6316939;20;2749328;-51
2023/06/14 10:39:47;;;;;;;;;8.00;7.00;;;;;25.68;38.12;99480.31;6340649;20;2748210;-46
2023/06/14 10:42:15;;;;;;;;;8.00;6.00;;;;;26.29;38.78;99477.88;6286347;20;2746248;-52
2023/06/14 10:44:51;;;;;;;;;6.80;6.80;;;;;25.74;37.98;99479.53;6338927;20;2746137;-50
2023/06/14 10:47:25;;;;;;;;;5.67;5.33;;;;;25.19;39.57;99477.28;6285201;20;2735830;-47
2023/06/14 10:50:05;;;;;;;;;6.00;6.00;;;;;25.94;39.93;99482.50;6322150;20;2625268;-49
2023/06/14 10:52:39;;;;;;;;;12.00;9.75;;;;;25.80;40.01;99478.72;6338400;20;2670131;-48
2023/06/14 10:55:16;;;;;;;;;7.40;7.40;;;;;25.79;40.03;99479.78;6337528;20;2749257;-53
2023/06/14 10:57:49;;;;;;;;;8.67;7.33;;;;;25.87;39.32;99476.06;6283947;20;2748229;-49
2023/06/14 11:00:24;;;;;;;;;8.00;7.00;;;;;25.80;37.89;99482.34;6314679;20;2745181;-56
2023/06/14 11:03:42;;;;;;;;;6.33;6.33;;;;;26.05;38.38;99474.53;6316290;20;2737795;-51
2023/06/14 11:06:15;;;;;;;;;9.67;9.00;;;;;26.20;38.57;99477.19;6317075;20;2752496;-53
2023/06/14 11:08:46;;;;;;;;;8.67;7.00;;;;;25.92;37.24;99468.91;6323326;20;2741711;-53
2023/06/14 11:11:16;;;;;;;;;6.00;6.00;;;;;26.12;39.70;99457.19;6340141;20;2740931;-53
2023/06/14 11:13:47;;;;;;;;;6.00;6.00;;;;;26.38;38.65;99464.78;6281574;20;2748171;-53
2023/06/14 11:16:18;;;;;;;;;7.33;7.33;;;;;25.42;40.49;99467.16;6312961;20;2738827;-49